Time;durP1;ratioP1;P1;durP2;ratioP2;P2;SDS_P1;SDS_P2;PMS_P1;PMS_P2;Temp;Humidity;BMP_temperature;BMP_pressure;BME280_temperature;BME280_humidity;BME280_pressure;Samples;Min_cycle;Max_cycle;Signal;HPM_P1;HPM_P2
2021/12/02 00:03:26;;;;;;;5.30;1.65;;;;;;;4.85;68.98;98079.47;10391036;28;20049;-67
2021/12/02 00:08:28;;;;;;;3.90;2.20;;;;;;;4.89;68.76;98092.13;10392131;28;20056;-66
2021/12/02 00:13:38;;;;;;;5.57;1.65;;;;;;;4.90;68.93;98090.38;10391997;28;20478;-67
2021/12/02 00:24:00;;;;;;;4.32;1.35;;;;;;;4.82;68.56;98108.16;10391214;28;20045;-67
2021/12/02 00:29:04;;;;;;;7.63;1.80;;;;;;;4.82;68.53;98103.00;10391030;28;20551;-67
2021/12/02 00:34:07;;;;;;;6.97;2.47;;;;;;;4.82;68.15;98103.00;10391503;28;20316;-66
2021/12/02 00:39:15;;;;;;;4.32;1.88;;;;;;;4.88;68.11;98105.19;10390836;28;20052;-67
2021/12/02 00:44:21;;;;;;;3.08;1.70;;;;;;;4.87;68.24;98113.84;10388300;28;20056;-67
2021/12/02 00:49:22;;;;;;;6.07;2.80;;;;;;;4.93;67.91;98108.28;10388899;28;20132;-67
2021/12/02 00:54:26;;;;;;;3.88;1.65;;;;;;;5.00;67.90;98112.13;10389289;28;20466;-66
2021/12/02 00:59:29;;;;;;;5.55;1.80;;;;;;;4.91;67.83;98116.16;10389471;28;20140;-66
2021/12/02 01:04:31;;;;;;;3.83;1.67;;;;;;;4.87;68.01;98109.53;10388897;28;20057;-67
2021/12/02 01:09:32;;;;;;;4.78;1.80;;;;;;;4.83;68.22;98112.41;10388246;28;20651;-66
2021/12/02 01:14:34;;;;;;;4.78;1.50;;;;;;;4.92;67.90;98122.19;10388884;28;20477;-66
2021/12/02 01:19:36;;;;;;;5.00;1.45;;;;;;;4.85;68.04;98121.75;10377325;28;20065;-67
2021/12/02 01:24:39;;;;;;;2.38;1.30;;;;;;;4.79;68.23;98116.97;10382578;28;20420;-67
2021/12/02 01:29:41;;;;;;;4.60;1.60;;;;;;;4.82;68.21;98121.91;10401174;28;20154;-67
2021/12/02 01:34:46;;;;;;;7.28;1.40;;;;;;;4.79;67.69;98129.06;10382341;28;20132;-66
2021/12/02 01:39:49;;;;;;;4.93;1.33;;;;;;;4.78;67.92;98135.19;10385586;28;20063;-67
2021/12/02 01:44:54;;;;;;;3.70;1.55;;;;;;;4.84;67.67;98140.78;10385456;28;20057;-66
2021/12/02 01:50:00;;;;;;;3.47;1.50;;;;;;;4.81;67.82;98142.75;10386142;28;20046;-66
2021/12/02 01:55:13;;;;;;;3.75;1.48;;;;;;;4.75;67.75;98136.22;10385902;28;20444;-67
2021/12/02 02:00:20;;;;;;;6.22;1.40;;;;;;;4.71;67.92;98134.75;10385276;28;20075;-67
2021/12/02 02:05:22;;;;;;;5.82;1.20;;;;;;;4.70;67.75;98139.09;10384722;28;20144;-66
2021/12/02 02:10:25;;;;;;;4.53;1.33;;;;;;;4.74;67.68;98131.94;10385373;28;20076;-67
2021/12/02 02:15:27;;;;;;;6.35;1.38;;;;;;;4.65;67.72;98129.97;10386521;28;20056;-67
2021/12/02 02:25:53;;;;;;;5.15;1.27;;;;;;;4.72;67.40;98133.00;10384359;28;20053;-66
2021/12/02 02:30:55;;;;;;;10.35;1.70;;;;;;;4.83;67.47;98133.97;10384283;28;20069;-67
2021/12/02 02:35:57;;;;;;;5.57;1.45;;;;;;;4.91;67.23;98142.06;10384512;28;20081;-67
2021/12/02 02:41:00;;;;;;;6.15;1.48;;;;;;;4.81;67.00;98134.97;10383889;28;20083;-66
2021/12/02 02:46:02;;;;;;;6.30;1.48;;;;;;;4.67;67.13;98143.66;10384895;28;20058;-67
2021/12/02 02:51:04;;;;;;;7.30;1.50;;;;;;;4.59;67.02;98138.97;10382447;28;20046;-67
2021/12/02 02:56:13;;;;;;;8.48;1.67;;;;;;;4.48;67.30;98138.81;10384262;28;20049;-67
2021/12/02 03:11:28;;;;;;;5.10;1.30;;;;;;;4.38;67.38;98142.06;10391015;28;20054;-67
2021/12/02 03:16:37;;;;;;;9.45;1.60;;;;;;;4.28;67.53;98135.81;10391003;28;20075;-66
2021/12/02 03:21:39;;;;;;;8.40;1.50;;;;;;;4.09;67.87;98136.13;10391114;28;20053;-67
2021/12/02 03:26:41;;;;;;;8.48;1.80;;;;;;;4.07;67.67;98135.38;10391131;28;20078;-67
2021/12/02 03:31:43;;;;;;;5.68;1.73;;;;;;;3.99;67.77;98134.19;10391062;28;20046;-67
2021/12/02 03:36:45;;;;;;;8.18;1.75;;;;;;;4.02;68.14;98140.03;10390059;28;20699;-67
2021/12/02 03:41:47;;;;;;;9.80;1.77;;;;;;;4.11;67.99;98133.47;10391069;28;20054;-66
2021/12/02 03:46:50;;;;;;;7.07;1.50;;;;;;;4.18;68.17;98129.56;10389804;28;20041;-66
2021/12/02 03:51:52;;;;;;;6.03;1.55;;;;;;;4.16;67.74;98127.06;10390345;28;20577;-66
2021/12/02 03:56:54;;;;;;;6.50;1.50;;;;;;;4.24;67.86;98124.00;10388930;28;20300;-67
2021/12/02 04:01:56;;;;;;;11.30;1.50;;;;;;;4.27;67.55;98136.75;10388838;28;20134;-66
2021/12/02 04:06:58;;;;;;;6.53;1.50;;;;;;;4.07;67.85;98137.97;10384654;28;20053;-67
2021/12/02 04:12:06;;;;;;;7.40;1.58;;;;;;;4.04;68.20;98127.84;10375679;28;20045;-67
2021/12/02 04:17:09;;;;;;;9.82;1.55;;;;;;;4.10;68.34;98117.09;10377611;28;20104;-66
2021/12/02 04:22:10;;;;;;;5.53;1.50;;;;;;;4.10;68.29;98113.69;10384112;28;20601;-67
2021/12/02 04:27:12;;;;;;;7.50;1.83;;;;;;;4.11;68.35;98117.94;10388620;28;20589;-66
2021/12/02 04:32:14;;;;;;;9.27;1.70;;;;;;;4.21;68.20;98124.19;10386486;28;20053;-67
2021/12/02 04:37:15;;;;;;;12.85;1.70;;;;;;;4.21;68.48;98129.38;10385263;28;20120;-67
2021/12/02 04:42:17;;;;;;;6.65;1.60;;;;;;;4.21;68.48;98124.19;10385251;28;20053;-66
2021/12/02 04:47:19;;;;;;;8.05;1.65;;;;;;;4.28;68.35;98128.88;10388276;28;20049;-67
2021/12/02 04:52:21;;;;;;;4.35;1.45;;;;;;;4.36;68.12;98138.75;10390271;28;20512;-67
2021/12/02 04:57:22;;;;;;;6.75;1.60;;;;;;;4.31;68.28;98133.03;10390845;28;20761;-67
2021/12/02 05:02:24;;;;;;;7.63;1.75;;;;;;;4.35;68.20;98137.91;10390287;28;20056;-68
2021/12/02 05:07:26;;;;;;;8.10;1.92;;;;;;;4.25;68.42;98133.44;10390119;28;20417;-67
2021/12/02 05:12:28;;;;;;;4.45;1.75;;;;;;;4.29;68.42;98130.53;10388149;28;20072;-68
2021/12/02 05:17:29;;;;;;;6.25;1.50;;;;;;;4.26;68.57;98143.69;10388450;28;20055;-67
2021/12/02 05:22:32;;;;;;;3.88;1.45;;;;;;;4.21;68.65;98156.06;10389059;28;20400;-67
2021/12/02 05:27:34;;;;;;;7.97;1.67;;;;;;;4.26;68.79;98161.78;10390769;28;20059;-67
2021/12/02 05:32:36;;;;;;;11.23;5.93;;;;;;;4.14;68.89;98162.56;10389602;28;20049;-67
2021/12/02 05:37:38;;;;;;;7.43;3.85;;;;;;;4.21;68.71;98161.22;10388683;28;20128;-67
2021/12/02 05:42:40;;;;;;;10.02;5.18;;;;;;;4.15;68.77;98161.63;10388468;28;20648;-68
2021/12/02 05:47:41;;;;;;;9.20;2.97;;;;;;;4.09;68.72;98156.00;10388006;28;20060;-67
2021/12/02 05:52:43;;;;;;;5.03;2.00;;;;;;;4.01;68.63;98163.38;10388849;28;20045;-68
2021/12/02 05:57:45;;;;;;;3.85;1.83;;;;;;;4.05;68.50;98165.69;10388490;28;20055;-67
2021/12/02 06:02:49;;;;;;;5.65;2.50;;;;;;;3.98;68.69;98163.59;10388613;28;20132;-67
2021/12/02 06:07:52;;;;;;;5.28;2.30;;;;;;;3.97;68.76;98159.31;10387508;28;20057;-66
2021/12/02 06:12:54;;;;;;;4.60;2.40;;;;;;;3.93;68.82;98171.63;10387740;28;20052;-67
2021/12/02 06:17:56;;;;;;;4.35;1.50;;;;;;;3.77;68.86;98165.69;10387605;28;20084;-67
2021/12/02 06:22:58;;;;;;;8.35;4.90;;;;;;;3.61;69.33;98165.78;10386529;28;20049;-67
2021/12/02 06:28:03;;;;;;;3.50;1.58;;;;;;;3.65;69.16;98172.44;10385601;28;20063;-67
2021/12/02 06:33:05;;;;;;;3.65;1.30;;;;;;;3.66;69.39;98179.25;10385352;28;20271;-67
2021/12/02 06:38:12;;;;;;;3.25;1.42;;;;;;;3.62;69.31;98182.13;10386289;28;20095;-67
2021/12/02 06:43:15;;;;;;;4.78;1.88;;;;;;;3.52;69.69;98186.16;10386509;28;20057;-67
2021/12/02 06:48:17;;;;;;;4.18;1.70;;;;;;;3.65;69.63;98182.75;10386898;28;20472;-67
2021/12/02 06:53:19;;;;;;;2.70;1.42;;;;;;;3.65;69.53;98189.69;10386643;28;20068;-67
2021/12/02 06:58:22;;;;;;;3.70;1.60;;;;;;;3.69;69.51;98192.00;10386852;28;20069;-67
2021/12/02 07:03:23;;;;;;;4.60;1.65;;;;;;;3.73;69.38;98190.91;10386262;28;20053;-67
2021/12/02 07:08:26;;;;;;;3.67;1.80;;;;;;;3.84;69.03;98195.47;10385702;28;20415;-67
2021/12/02 07:13:28;;;;;;;5.10;2.08;;;;;;;3.69;69.44;98207.50;10386729;28;20057;-67
2021/12/02 07:18:35;;;;;;;4.53;2.30;;;;;;;3.71;69.38;98215.16;10386073;28;20505;-67
2021/12/02 07:23:37;;;;;;;4.95;2.05;;;;;;;3.75;69.31;98211.47;10385337;28;20056;-67
2021/12/02 07:28:38;;;;;;;6.72;2.72;;;;;;;3.78;68.73;98219.06;10385940;28;20050;-66
2021/12/02 07:33:43;;;;;;;5.97;2.03;;;;;;;3.81;68.63;98214.53;10385220;28;20041;-67
2021/12/02 07:38:46;;;;;;;7.10;2.00;;;;;;;3.73;68.70;98223.66;10384727;28;20084;-66
2021/12/02 07:43:47;;;;;;;9.23;1.90;;;;;;;3.88;68.29;98230.56;10385481;28;20417;-66
2021/12/02 07:48:49;;;;;;;5.22;2.08;;;;;;;4.02;68.04;98227.13;10384948;28;20067;-67
2021/12/02 07:53:51;;;;;;;6.97;1.90;;;;;;;4.10;67.62;98236.09;10385331;28;20081;-67
2021/12/02 07:58:53;;;;;;;5.18;1.80;;;;;;;4.08;67.65;98240.53;10389595;28;20424;-66
2021/12/02 08:03:54;;;;;;;5.10;2.38;;;;;;;4.01;67.82;98246.16;10392957;28;20049;-66
2021/12/02 08:08:56;;;;;;;9.00;2.17;;;;;;;3.92;68.16;98250.13;10393074;28;20049;-66
2021/12/02 08:13:59;;;;;;;5.63;1.90;;;;;;;4.04;67.61;98256.31;10393282;28;20045;-67
2021/12/02 08:19:01;;;;;;;6.80;2.50;;;;;;;4.22;67.46;98255.22;10391146;28;20527;-66
2021/12/02 08:24:03;;;;;;;6.35;2.30;;;;;;;4.29;66.99;98249.56;10392502;28;20053;-67
2021/12/02 08:29:06;;;;;;;9.40;3.03;;;;;;;4.25;67.17;98265.41;10391935;28;20103;-67
2021/12/02 08:34:08;;;;;;;8.02;2.30;;;;;;;4.19;67.22;98266.56;10391644;28;20049;-66
2021/12/02 08:39:15;;;;;;;7.68;2.13;;;;;;;3.94;66.95;98287.09;10392065;28;20093;-66
2021/12/02 08:44:18;;;;;;;8.20;2.40;;;;;;;4.14;66.98;98289.31;10390912;28;20045;-66
2021/12/02 08:49:21;;;;;;;6.43;2.50;;;;;;;4.17;67.24;98290.91;10389120;28;20049;-67
2021/12/02 08:54:22;;;;;;;5.30;2.70;;;;;;;4.28;67.10;98299.66;10391282;28;20559;-66
2021/12/02 08:59:24;;;;;;;8.43;2.55;;;;;;;4.48;66.50;98306.22;10389445;28;20515;-66
2021/12/02 09:04:26;;;;;;;7.00;2.53;;;;;;;4.85;65.70;98297.03;10390457;28;20045;-67
2021/12/02 09:09:28;;;;;;;10.20;4.80;;;;;;;5.20;64.48;98304.25;10388068;28;20051;-66
2021/12/02 09:14:30;;;;;;;10.88;4.00;;;;;;;5.37;64.88;98306.56;10390486;28;20053;-67
2021/12/02 09:19:32;;;;;;;8.10;3.53;;;;;;;5.25;64.81;98306.53;10390172;28;20053;-68
2021/12/02 09:24:35;;;;;;;9.60;3.22;;;;;;;5.00;65.11;98317.63;10389508;28;20045;-66
2021/12/02 09:29:37;;;;;;;10.77;4.57;;;;;;;5.03;65.41;98322.59;10389741;28;20134;-66
2021/12/02 09:34:39;;;;;;;7.38;2.40;;;;;;;5.03;65.07;98335.56;10371586;28;20103;-66
2021/12/02 09:39:41;;;;;;;6.63;2.65;;;;;;;4.92;65.19;98350.97;10388252;28;20053;-66
2021/12/02 09:44:47;;;;;;;5.80;2.13;;;;;;;4.81;64.94;98358.53;10387774;28;20311;-71
2021/12/02 09:49:50;;;;;;;5.10;2.10;;;;;;;4.37;65.08;98363.81;10387842;28;20042;-71
2021/12/02 09:55:08;;;;;;;4.57;1.90;;;;;;;4.17;65.66;98356.38;10388840;28;20297;-71
2021/12/02 10:00:17;;;;;;;4.97;1.77;;;;;;;4.39;65.16;98346.44;10385287;28;20501;-71
2021/12/02 10:05:27;;;;;;;6.85;2.20;;;;;;;4.43;65.05;98350.50;10387759;28;20059;-71
2021/12/02 10:10:37;;;;;;;5.05;2.38;;;;;;;4.72;64.98;98349.56;10386429;28;20418;-72
2021/12/02 10:15:40;;;;;;;8.32;2.42;;;;;;;4.80;64.91;98343.09;10388498;28;20068;-71
2021/12/02 10:20:45;;;;;;;5.05;1.80;;;;;;;4.62;65.24;98342.44;10385487;28;20055;-71
2021/12/02 10:26:00;;;;;;;2.92;1.45;;;;;;;4.41;63.88;98349.75;10387115;28;20053;-71
2021/12/02 10:31:05;;;;;;;6.18;1.90;;;;;;;4.30;65.49;98357.34;10401643;28;20132;-71
2021/12/02 10:36:20;;;;;;;4.05;1.67;;;;;;;4.23;65.48;98356.03;10386711;28;20080;-71
2021/12/02 10:41:25;;;;;;;3.80;1.90;;;;;;;4.38;65.31;98346.53;10386007;28;20046;-71
2021/12/02 10:46:27;;;;;;;5.97;2.35;;;;;;;4.51;65.27;98356.06;10386084;28;20207;-72
2021/12/02 10:51:38;;;;;;;4.60;2.10;;;;;;;4.54;64.82;98361.06;10386712;28;20081;-72
2021/12/02 10:56:42;;;;;;;3.80;2.10;;;;;;;4.50;65.26;98366.50;10382522;28;20049;-72
2021/12/02 11:01:44;;;;;;;3.15;1.65;;;;;;;4.35;64.78;98376.00;10384182;28;20444;-72
2021/12/02 11:06:47;;;;;;;5.10;1.83;;;;;;;4.03;64.36;98369.28;10383985;28;20586;-72
2021/12/02 11:12:14;;;;;;;6.85;2.17;;;;;;;4.07;63.78;98370.78;10386383;28;20136;-71
2021/12/02 11:17:16;;;;;;;4.85;2.10;;;;;;;4.55;64.08;98367.91;10385470;28;20057;-71
2021/12/02 11:22:22;;;;;;;4.82;2.28;;;;;;;4.90;63.16;98372.69;10385222;28;20501;-71
2021/12/02 11:27:32;;;;;;;4.35;2.22;;;;;;;4.85;63.01;98372.13;10384250;28;20053;-71
2021/12/02 11:32:38;;;;;;;6.38;4.15;;;;;;;4.60;63.19;98378.81;10389297;28;20996;-71
2021/12/02 11:37:43;;;;;;;4.72;2.35;;;;;;;4.43;63.39;98378.97;10393305;28;20053;-71
2021/12/02 11:42:46;;;;;;;6.85;2.42;;;;;;;4.54;62.91;98362.81;10393260;28;20045;-72
2021/12/02 11:47:50;;;;;;;6.00;2.38;;;;;;;4.71;61.79;98372.97;10393712;28;20523;-71
2021/12/02 11:52:53;;;;;;;4.13;2.33;;;;;;;4.91;61.24;98380.38;10393140;28;20128;-72
2021/12/02 11:57:56;;;;;;;4.85;2.53;;;;;;;4.85;60.90;98375.56;10392656;28;20056;-71
2021/12/02 12:03:07;;;;;;;4.05;2.60;;;;;;;4.81;61.21;98375.84;10393059;28;20072;-71
2021/12/02 12:08:09;;;;;;;5.00;2.67;;;;;;;4.86;60.89;98374.63;10392998;28;20057;-72
2021/12/02 12:13:22;;;;;;;5.32;2.55;;;;;;;4.99;59.83;98380.72;10391971;28;20053;-71
2021/12/02 12:18:39;;;;;;;6.30;2.50;;;;;;;4.80;59.99;98380.19;10392315;28;20084;-71
2021/12/02 12:23:55;;;;;;;4.55;2.42;;;;;;;4.81;59.29;98373.25;10392693;28;20075;-72
2021/12/02 12:39:33;;;;;;;4.32;2.25;;;;;;;4.62;60.65;98400.25;10389568;28;21086;-72
2021/12/02 12:44:48;;;;;;;4.18;2.10;;;;;;;4.42;59.97;98410.13;10390326;28;20045;-71
2021/12/02 12:50:28;;;;;;;5.80;2.60;;;;;;;4.33;59.45;98406.31;10391204;28;20053;-72
2021/12/02 12:55:35;;;;;;;5.03;2.50;;;;;;;4.52;60.37;98417.25;10390769;28;20052;-71
2021/12/02 13:00:40;;;;;;;6.30;2.10;;;;;;;4.74;60.18;98403.03;10389942;28;20515;-71
2021/12/02 13:05:49;;;;;;;6.22;2.20;;;;;;;4.58;59.82;98419.50;10390055;28;20055;-71
2021/12/02 13:11:00;;;;;;;4.75;2.00;;;;;;;4.91;60.21;98415.78;10389182;28;20056;-72
2021/12/02 13:16:17;;;;;;;3.72;1.70;;;;;;;4.91;59.11;98433.91;10389554;28;20057;-71
2021/12/02 13:21:41;;;;;;;3.55;1.90;;;;;;;4.72;59.17;98443.75;10390439;28;20130;-71
2021/12/02 13:27:06;;;;;;;3.75;1.95;;;;;;;4.86;58.74;98439.38;10388229;28;20056;-71
2021/12/02 13:32:09;;;;;;;10.13;1.90;;;;;;;4.57;59.03;98446.31;10388704;28;20061;-71
2021/12/02 13:37:13;;;;;;;5.30;1.80;;;;;;;4.57;59.15;98448.91;10389646;28;20085;-71
2021/12/02 13:42:16;;;;;;;3.50;2.15;;;;;;;4.61;59.36;98459.91;10389691;28;20046;-72
2021/12/02 13:47:20;;;;;;;4.38;2.13;;;;;;;4.53;59.47;98482.81;10389080;28;20053;-71
2021/12/02 13:57:52;;;;;;;6.60;2.15;;;;;;;4.19;58.80;98496.84;10388410;28;20049;-72
2021/12/02 14:02:58;;;;;;;4.50;1.90;;;;;;;4.31;59.52;98496.16;10388624;28;20073;-71
2021/12/02 14:08:09;;;;;;;4.85;1.70;;;;;;;4.54;59.61;98502.59;10386375;28;20450;-71
2021/12/02 14:13:14;;;;;;;6.50;2.20;;;;;;;4.66;59.28;98507.06;10388455;28;20071;-72
2021/12/02 14:18:29;;;;;;;7.40;2.20;;;;;;;4.61;58.63;98522.03;10566772;27;20399;-71
2021/12/02 14:23:37;;;;;;;4.88;1.70;;;;;;;4.73;58.57;98523.91;10570506;28;20326;-71
2021/12/02 14:28:42;;;;;;;5.75;1.80;;;;;;;4.69;59.21;98533.63;10575981;28;20608;-70
2021/12/02 14:33:44;;;;;;;7.60;1.90;;;;;;;4.57;58.79;98534.34;10560887;28;20040;-71
2021/12/02 14:39:01;;;;;;;6.78;1.92;;;;;;;4.36;57.42;98542.47;10578939;28;20774;-71
2021/12/02 14:44:11;;;;;;;5.65;1.80;;;;;;;4.30;57.47;98554.03;10585121;27;20053;-71
2021/12/02 14:49:46;;;;;;;5.45;1.70;;;;;;;4.11;58.43;98561.13;10545124;28;20058;-71
2021/12/02 14:55:04;;;;;;;6.13;1.60;;;;;;;4.12;59.04;98577.50;10575211;28;20051;-71
2021/12/02 15:00:12;;;;;;;8.50;1.98;;;;;;;4.20;58.93;98586.50;10563136;28;20291;-72
2021/12/02 15:05:23;;;;;;;6.07;1.88;;;;;;;4.19;58.95;98595.16;10544011;28;20524;-72
2021/12/02 15:10:33;;;;;;;;;;;;;;;3.88;60.04;98613.28;10546139;28;20091;-71
2021/12/02 15:15:42;;;;;;;5.05;1.80;;;;;;;3.98;58.86;98619.66;10543758;28;19920;-71
2021/12/02 15:20:48;;;;;;;4.72;1.83;;;;;;;3.95;59.60;98624.97;10564752;28;20421;-71
2021/12/02 15:26:01;;;;;;;7.20;2.08;;;;;;;3.85;59.05;98631.53;10547921;28;20083;-71
2021/12/02 15:31:15;;;;;;;4.47;1.80;;;;;;;3.93;59.40;98642.31;10514644;28;20048;-71
2021/12/02 15:36:28;;;;;;;5.47;1.90;;;;;;;3.90;59.98;98652.84;10521643;28;20407;-71
2021/12/02 15:41:31;;;;;;;7.85;2.25;;;;;;;3.91;60.13;98670.00;10528805;28;20782;-71
2021/12/02 15:46:45;;;;;;;6.60;2.60;;;;;;;3.84;60.97;98679.84;10518540;28;20087;-71
2021/12/02 15:51:47;;;;;;;10.32;3.97;;;;;;;3.51;62.06;98697.06;10554282;28;20055;-71
2021/12/02 15:56:49;;;;;;;7.65;2.92;;;;;;;3.41;62.41;98706.22;10554228;28;20554;-71
2021/12/02 16:07:08;;;;;;;9.95;3.63;;;;;;;3.34;62.68;98728.09;10520905;28;20132;-72
2021/12/02 16:17:11;;;;;;;8.25;4.32;;;;;;;3.11;63.37;98727.56;10524296;28;20072;-71
2021/12/02 16:22:14;;;;;;;7.38;3.50;;;;;;;3.07;63.58;98741.53;10533101;28;20079;-71
2021/12/02 16:27:16;;;;;;;7.68;4.32;;;;;;;3.09;63.54;98757.78;10538303;28;20543;-71
2021/12/02 16:32:18;;;;;;;7.32;4.28;;;;;;;3.05;63.76;98754.50;10514341;28;20514;-71
2021/12/02 16:37:20;;;;;;;7.15;4.80;;;;;;;3.08;63.57;98775.03;10511571;28;20052;-71
2021/12/02 16:42:22;;;;;;;9.40;5.20;;;;;;;3.10;63.63;98778.38;10543102;28;20044;-71
2021/12/02 16:47:23;;;;;;;6.68;5.20;;;;;;;3.17;63.64;98784.09;10547074;28;20231;-70
2021/12/02 16:52:25;;;;;;;8.20;5.30;;;;;;;3.04;63.96;98784.69;10542026;28;20578;-72
2021/12/02 16:57:27;;;;;;;7.22;4.55;;;;;;;2.89;64.23;98790.56;10530560;27;20056;-72
2021/12/02 17:02:28;;;;;;;8.40;4.97;;;;;;;2.90;64.53;98802.56;10519867;28;20120;-70
2021/12/02 17:07:30;;;;;;;8.05;5.15;;;;;;;2.88;64.57;98798.38;10509229;28;20670;-70
2021/12/02 17:12:32;;;;;;;8.88;5.55;;;;;;;2.82;64.63;98804.66;10519581;28;20054;-71
2021/12/02 17:17:36;;;;;;;10.63;5.70;;;;;;;2.80;64.46;98811.66;10521550;28;20082;-70
2021/12/02 17:22:38;;;;;;;8.13;5.53;;;;;;;2.89;64.46;98815.53;10542227;28;20050;-70
2021/12/02 17:27:40;;;;;;;10.85;5.90;;;;;;;2.91;64.69;98824.88;10530282;28;20527;-71
2021/12/02 17:32:42;;;;;;;9.40;6.07;;;;;;;2.93;64.69;98835.13;10539740;28;20159;-71
2021/12/02 17:37:45;;;;;;;10.57;6.20;;;;;;;2.88;64.90;98835.38;10535620;27;20052;-71
2021/12/02 17:42:48;;;;;;;9.70;6.68;;;;;;;2.86;64.61;98834.59;10508363;28;20050;-71
2021/12/02 17:47:50;;;;;;;10.45;7.22;;;;;;;2.90;64.80;98853.38;10542296;28;20046;-71
2021/12/02 17:52:52;;;;;;;9.73;7.72;;;;;;;2.97;64.65;98854.75;10534736;28;20073;-71
2021/12/02 17:57:54;;;;;;;10.10;7.50;;;;;;;2.95;64.77;98862.56;10528626;28;20483;-71
2021/12/02 18:02:57;;;;;;;12.65;7.32;;;;;;;3.00;64.47;98865.78;10515971;28;20040;-71
2021/12/02 18:07:59;;;;;;;13.27;7.95;;;;;;;3.03;64.83;98886.28;10511642;28;20071;-71
2021/12/02 18:13:01;;;;;;;6.68;4.15;;;;;;;2.80;64.69;98914.94;10518000;28;20411;-71
2021/12/02 18:18:07;;;;;;;6.03;3.67;;;;;;;2.57;64.86;98909.91;10510106;28;20507;-71
2021/12/02 18:23:09;;;;;;;11.65;7.63;;;;;;;2.60;64.98;98921.88;10528416;28;20050;-71
2021/12/02 18:28:11;;;;;;;11.07;6.40;;;;;;;2.49;64.89;98924.06;10536533;28;20471;-71
2021/12/02 18:33:13;;;;;;;10.77;5.95;;;;;;;2.50;65.02;98934.31;10533269;28;20051;-71
2021/12/02 18:38:15;;;;;;;11.48;7.60;;;;;;;2.53;65.19;98949.69;10550642;28;20052;-71
2021/12/02 18:43:17;;;;;;;8.73;5.15;;;;;;;2.24;65.11;98947.47;10543732;28;20047;-71
2021/12/02 18:48:19;;;;;;;6.68;4.68;;;;;;;2.10;65.29;98965.25;10549221;28;20051;-71
2021/12/02 18:53:21;;;;;;;8.93;5.30;;;;;;;2.02;65.25;98967.31;10525870;28;20047;-71
2021/12/02 18:58:23;;;;;;;8.02;5.20;;;;;;;2.03;65.38;98984.47;10507536;28;20048;-70
2021/12/02 19:03:25;;;;;;;9.27;4.40;;;;;;;2.13;65.18;98988.38;10532867;28;20609;-70
2021/12/02 19:29:36;;;;;;;7.63;4.95;;;;;;;2.31;64.35;99034.03;10521372;28;20040;-71
2021/12/02 19:34:38;;;;;;;6.43;4.70;;;;;;;2.19;64.66;99044.84;10554107;28;20066;-71
2021/12/02 19:39:40;;;;;;;7.22;4.50;;;;;;;2.29;64.34;99056.50;10555157;28;20054;-71
2021/12/02 19:44:42;;;;;;;7.47;4.30;;;;;;;2.20;64.64;99055.09;10538935;28;20056;-71
2021/12/02 19:49:47;;;;;;;7.65;4.72;;;;;;;2.20;64.23;99075.75;10514706;28;20055;-71
2021/12/02 19:54:48;;;;;;;6.45;4.32;;;;;;;2.15;64.19;99084.56;10536832;28;20054;-70
2021/12/02 19:59:50;;;;;;;6.63;4.90;;;;;;;2.11;64.23;99088.16;10511204;28;20051;-70
2021/12/02 20:04:52;;;;;;;7.53;5.32;;;;;;;2.22;64.20;99102.31;10545112;28;20047;-71
2021/12/02 20:09:54;;;;;;;8.52;4.95;;;;;;;2.17;64.11;99114.53;10548589;28;20056;-71
2021/12/02 20:14:56;;;;;;;7.72;4.88;;;;;;;2.00;64.17;99106.63;10546388;28;20079;-71
2021/12/02 20:20:04;;;;;;;6.18;5.15;;;;;;;1.94;64.11;99113.75;10534450;28;20200;-71
2021/12/02 20:25:07;;;;;;;8.32;4.45;;;;;;;1.79;64.07;99114.31;10528819;28;20526;-70
2021/12/02 20:30:12;;;;;;;8.45;5.20;;;;;;;1.58;64.63;99121.13;10528702;28;20418;-70
2021/12/02 20:35:14;;;;;;;7.72;5.30;;;;;;;1.52;64.50;99136.81;10512704;28;20048;-71
2021/12/02 20:40:16;;;;;;;7.30;5.35;;;;;;;1.49;64.52;99146.34;10535804;28;20062;-71
2021/12/02 20:45:18;;;;;;;8.32;6.00;;;;;;;1.32;64.67;99157.25;10532766;28;20059;-71
2021/12/02 20:50:22;;;;;;;9.52;5.93;;;;;;;1.43;65.10;99173.19;10511633;28;20132;-71
2021/12/02 20:55:28;;;;;;;7.72;6.07;;;;;;;1.50;64.97;99184.13;10511421;28;20419;-71
2021/12/02 21:00:32;;;;;;;7.50;6.35;;;;;;;1.60;64.91;99194.06;10511998;28;20154;-71
2021/12/02 21:05:35;;;;;;;7.93;6.18;;;;;;;1.38;65.53;99199.09;10525480;28;20049;-70
2021/12/02 21:10:37;;;;;;;7.43;5.88;;;;;;;1.51;65.16;99202.09;10552582;28;20089;-70
2021/12/02 21:15:39;;;;;;;9.88;6.95;;;;;;;1.52;64.58;99211.53;10552192;28;20575;-70
2021/12/02 21:20:40;;;;;;;12.10;8.38;;;;;;;1.46;64.93;99223.78;10548383;27;20051;-70
2021/12/02 21:25:42;;;;;;;11.93;9.05;;;;;;;1.45;64.67;99229.81;10535979;28;20142;-71
2021/12/02 21:30:44;;;;;;;9.27;6.78;;;;;;;1.30;64.94;99224.28;10528457;28;20048;-70
2021/12/02 21:35:55;;;;;;;11.23;7.30;;;;;;;1.38;65.33;99228.34;10545083;28;20051;-70
2021/12/02 21:40:58;;;;;;;9.00;7.65;;;;;;;1.44;64.87;99228.16;10538311;28;20167;-70
2021/12/02 21:46:02;;;;;;;9.30;7.25;;;;;;;1.36;64.88;99242.09;10508843;28;20759;-70
2021/12/02 21:51:05;;;;;;;9.52;7.28;;;;;;;1.31;64.81;99244.00;10515755;28;20441;-70
2021/12/02 21:56:07;;;;;;;11.65;7.70;;;;;;;1.20;64.89;99252.97;10528928;28;20491;-70
2021/12/02 22:01:14;;;;;;;11.02;8.10;;;;;;;1.10;65.08;99267.88;10551110;28;20057;-70
2021/12/02 22:06:17;;;;;;;12.10;7.65;;;;;;;0.95;65.08;99282.97;10549485;28;20117;-70
2021/12/02 22:11:19;;;;;;;10.73;8.18;;;;;;;0.88;65.75;99294.34;10551434;28;20089;-70
2021/12/02 22:16:21;;;;;;;8.90;7.13;;;;;;;0.85;65.28;99295.28;10512663;28;20066;-70
2021/12/02 22:21:23;;;;;;;9.60;7.18;;;;;;;0.78;65.41;99308.38;10508979;28;20105;-69
2021/12/02 22:26:25;;;;;;;9.05;6.55;;;;;;;0.76;65.46;99315.31;10508083;28;20051;-70
2021/12/02 22:31:30;;;;;;;8.15;6.20;;;;;;;0.73;65.26;99320.56;10520831;28;20059;-70
2021/12/02 22:36:35;;;;;;;12.77;7.43;;;;;;;0.68;65.46;99325.00;10548438;28;20054;-70
2021/12/02 22:41:38;;;;;;;11.05;6.85;;;;;;;0.64;65.31;99334.53;10559234;28;20058;-70
2021/12/02 22:46:42;;;;;;;10.43;8.00;;;;;;;0.62;65.29;99333.75;10555454;28;20108;-69
2021/12/02 22:51:44;;;;;;;10.25;6.97;;;;;;;0.59;65.25;99333.00;10557855;28;20062;-70
2021/12/02 22:56:45;;;;;;;10.75;7.15;;;;;;;0.64;66.64;99331.97;10555243;28;20414;-68
2021/12/02 23:01:47;;;;;;;9.48;6.95;;;;;;;0.60;65.66;99347.53;10529192;28;20079;-69
2021/12/02 23:06:49;;;;;;;8.60;6.22;;;;;;;0.41;65.73;99354.91;10528370;28;20460;-67
2021/12/02 23:11:52;;;;;;;7.93;6.28;;;;;;;0.45;65.57;99366.81;10526255;28;20044;-67
2021/12/02 23:16:54;;;;;;;8.63;6.50;;;;;;;0.52;65.66;99384.59;10539761;28;20051;-69
2021/12/02 23:21:56;;;;;;;9.48;6.40;;;;;;;0.51;65.68;99402.66;10548906;28;20047;-67
2021/12/02 23:27:01;;;;;;;10.50;7.03;;;;;;;0.46;65.65;99407.09;10535890;28;20071;-67
2021/12/02 23:32:03;;;;;;;9.93;7.07;;;;;;;0.45;65.40;99402.81;10539937;28;20134;-68
2021/12/02 23:37:06;;;;;;;14.43;8.30;;;;;;;0.50;65.44;99396.66;10537611;28;20125;-68
2021/12/02 23:42:08;;;;;;;12.05;9.00;;;;;;;0.45;65.89;99385.66;10529573;28;20568;-69
2021/12/02 23:47:09;;;;;;;10.88;8.07;;;;;;;0.32;65.93;99396.34;10557069;28;20055;-68
2021/12/02 23:52:11;;;;;;;13.98;9.10;;;;;;;0.18;65.87;99412.13;10540139;28;20043;-69
2021/12/02 23:57:13;;;;;;;14.93;9.85;;;;;;;0.23;65.93;99409.44;10533505;28;20143;-69
